Terminal Aerodrome Forecast
Issued by NWS

Home | Current Version | Previous Version | Text Only | Print | Product List | Glossary On
Versions: 1 2 3 4 5 6 7 8 9 10 11 12 13 14 15 16 17 18 19
000
FTUS43 KDVN 070520
TAFBRL
TAF
KBRL 070520Z 0706/0806 15007KT P6SM BKN100
     FM071500 18014G21KT P6SM SCT050 BKN200
     FM072100 19013KT P6SM VCTS BKN080CB PROB30 0721/0724 4SM -TSRA
      BKN035CB
     FM080000 20008KT 6SM BR VCTS OVC050CB=

USA.gov is the U.S. government's official web portal to all federal, state and local government web resources and services.